Time;durP1;ratioP1;P1;durP2;ratioP2;P2;SDS_P1;SDS_P2;PMS_P1;PMS_P2;Temp;Humidity;BMP_temperature;BMP_pressure;BME280_temperature;BME280_humidity;BME280_pressure;Samples;Min_cycle;Max_cycle;Signal;HPM_P1;HPM_P2
2023/11/05 00:02:17;;;;;;;36.22;18.90;;;;;;;8.15;76.97;98910.50;5115146;28;20392;-69
2023/11/05 00:04:42;;;;;;;33.42;18.40;;;;;;;8.15;77.00;98897.16;5116032;28;20413;-70
2023/11/05 00:07:08;;;;;;;37.88;18.05;;;;;;;8.12;76.80;98886.75;5116394;28;20038;-69
2023/11/05 00:09:34;;;;;;;33.83;17.42;;;;;;;8.11;76.61;98874.41;5114943;28;20028;-69
2023/11/05 00:11:59;;;;;;;35.92;18.65;;;;;;;8.24;76.09;98876.03;5115799;28;20023;-70
2023/11/05 00:14:25;;;;;;;36.17;18.63;;;;;;;8.21;76.15;98876.31;5116478;27;20084;-68
2023/11/05 00:16:50;;;;;;;32.88;19.10;;;;;;;8.15;76.78;98894.50;5114636;28;20059;-69
2023/11/05 00:19:16;;;;;;;32.90;18.73;;;;;;;8.13;76.91;98895.63;5115984;28;20480;-70
2023/11/05 00:21:41;;;;;;;33.97;17.30;;;;;;;7.94;76.34;98841.19;5114929;28;20442;-69
2023/11/05 00:24:07;;;;;;;31.52;15.40;;;;;;;8.13;76.60;98872.44;5115850;28;20027;-69
2023/11/05 00:26:33;;;;;;;34.65;18.20;;;;;;;8.22;76.26;98852.16;5115650;28;20071;-71
2023/11/05 00:28:58;;;;;;;32.08;18.65;;;;;;;8.07;76.65;98846.31;5116478;28;20446;-69
2023/11/05 00:31:24;;;;;;;34.78;19.17;;;;;;;8.09;75.98;98816.88;5115496;28;20070;-70
2023/11/05 00:33:50;;;;;;;34.15;18.50;;;;;;;8.25;76.18;98859.06;5115204;27;20032;-71
2023/11/05 00:36:16;;;;;;;31.40;18.63;;;;;;;8.10;76.31;98848.72;5114955;28;20414;-69
2023/11/05 00:38:41;;;;;;;34.30;17.85;;;;;;;8.18;76.78;98850.72;5115964;28;20027;-71
2023/11/05 00:41:07;;;;;;;36.72;17.15;;;;;;;8.29;76.11;98844.47;5115834;28;20059;-69
2023/11/05 00:43:32;;;;;;;35.85;19.52;;;;;;;8.30;75.79;98817.66;5116005;28;20027;-70
2023/11/05 00:45:58;;;;;;;31.05;18.73;;;;;;;8.26;76.30;98813.56;5115691;28;20028;-70
2023/11/05 00:48:24;;;;;;;32.67;19.42;;;;;;;8.19;76.64;98831.91;5115702;28;20101;-69
2023/11/05 00:50:49;;;;;;;34.30;19.90;;;;;;;8.25;76.34;98816.38;5116086;28;20035;-69
2023/11/05 00:53:14;;;;;;;37.20;18.67;;;;;;;8.25;76.14;98817.22;5114597;28;20465;-70
2023/11/05 00:55:40;;;;;;;33.65;19.42;;;;;;;8.23;76.59;98813.00;5115130;28;20043;-69
2023/11/05 00:58:06;;;;;;;34.25;18.77;;;;;;;8.30;76.15;98808.81;5115716;28;20027;-65
2023/11/05 01:00:31;;;;;;;33.63;19.73;;;;;;;8.30;76.16;98792.81;5116259;28;20035;-70
2023/11/05 01:02:57;;;;;;;32.35;19.63;;;;;;;8.28;76.28;98797.44;5115164;28;20365;-71
2023/11/05 01:05:22;;;;;;;36.22;19.55;;;;;;;8.33;76.32;98800.56;5115034;27;20100;-69
2023/11/05 01:07:48;;;;;;;36.22;19.08;;;;;;;8.28;76.97;98789.44;5115685;28;20031;-69
2023/11/05 01:10:13;;;;;;;34.17;19.85;;;;;;;8.32;76.63;98813.06;5115191;28;20039;-70
2023/11/05 01:12:39;;;;;;;32.58;19.13;;;;;;;8.32;76.93;98826.38;5115321;28;20028;-68
2023/11/05 01:15:05;;;;;;;36.80;19.63;;;;;;;8.10;77.04;98771.41;5114390;28;20046;-70
2023/11/05 01:17:31;;;;;;;36.80;18.88;;;;;;;8.35;76.89;98801.25;5115268;28;20465;-69
2023/11/05 01:19:57;;;;;;;32.15;18.73;;;;;;;8.46;76.26;98835.84;5115539;28;20031;-71
2023/11/05 01:22:23;;;;;;;33.25;18.67;;;;;;;8.39;76.45;98802.66;5115357;28;20035;-70
2023/11/05 01:24:49;;;;;;;32.47;19.55;;;;;;;8.39;76.80;98791.16;5114386;28;20020;-70
2023/11/05 01:27:14;;;;;;;36.47;20.13;;;;;;;8.41;77.16;98799.88;5115682;28;20056;-70
2023/11/05 01:29:40;;;;;;;31.55;18.50;;;;;;;8.40;77.08;98809.69;5115831;28;20039;-69
2023/11/05 01:32:07;;;;;;;33.97;19.70;;;;;;;8.55;76.34;98817.38;5114934;28;20035;-69
2023/11/05 01:34:33;;;;;;;37.17;20.52;;;;;;;8.47;76.64;98770.84;5115100;28;20035;-70
2023/11/05 01:36:59;;;;;;;31.25;19.17;;;;;;;8.50;76.25;98787.59;5114896;28;20032;-69
2023/11/05 01:39:25;;;;;;;32.88;20.08;;;;;;;8.44;76.48;98764.94;5114301;28;20362;-71
2023/11/05 01:41:51;;;;;;;33.17;19.92;;;;;;;8.36;76.70;98762.94;5114796;28;20039;-70
2023/11/05 01:44:19;;;;;;;31.63;20.27;;;;;;;8.60;76.19;98793.78;5114435;28;20020;-70
2023/11/05 01:46:44;;;;;;;36.08;19.67;;;;;;;8.56;76.19;98792.38;5114202;28;20023;-70
2023/11/05 01:49:11;;;;;;;35.65;19.88;;;;;;;8.54;76.68;98797.00;5114768;28;20029;-70
2023/11/05 01:51:37;;;;;;;35.65;20.08;;;;;;;8.53;76.87;98797.97;5114633;28;20126;-69
2023/11/05 01:54:03;;;;;;;33.28;19.90;;;;;;;8.57;76.94;98804.72;5114863;28;20032;-69
2023/11/05 01:56:31;;;;;;;34.85;19.88;;;;;;;8.62;76.56;98775.81;5114166;28;20126;-69
2023/11/05 01:58:59;;;;;;;34.83;20.73;;;;;;;8.70;76.10;98775.13;5113892;28;20028;-69
2023/11/05 02:01:27;;;;;;;31.48;20.02;;;;;;;8.78;75.48;98742.41;5112996;28;20062;-69
2023/11/05 02:03:53;;;;;;;35.20;21.75;;;;;;;8.79;75.70;98749.44;5114439;28;20099;-70
2023/11/05 02:06:18;;;;;;;33.50;19.90;;;;;;;8.66;76.16;98739.84;5115395;28;20038;-70
2023/11/05 02:08:44;;;;;;;31.17;18.85;;;;;;;8.78;76.08;98759.25;5115165;27;20027;-69
2023/11/05 02:11:10;;;;;;;31.23;18.20;;;;;;;8.76;75.72;98755.88;5115302;28;20059;-66
2023/11/05 02:13:52;;;;;;;38.70;21.55;;;;;;;8.88;75.58;98776.13;5114242;28;20032;-69
2023/11/05 02:16:20;;;;;;;32.80;20.52;;;;;;;8.76;76.42;98778.09;5113409;28;20480;-69
2023/11/05 02:18:47;;;;;;;30.73;19.63;;;;;;;8.78;76.39;98777.09;5114493;28;20084;-69
2023/11/05 02:21:24;;;;;;;34.35;20.08;;;;;;;8.80;76.28;98770.66;5114349;28;20044;-67
2023/11/05 02:23:50;;;;;;;30.98;20.00;;;;;;;8.87;75.81;98757.59;5113009;28;20032;-69
2023/11/05 02:26:16;;;;;;;32.13;18.90;;;;;;;8.79;76.07;98760.13;5114116;27;20108;-68
2023/11/05 02:28:41;;;;;;;30.90;20.88;;;;;;;8.71;75.84;98716.28;5112919;28;20031;-66
2023/11/05 02:31:07;;;;;;;34.33;20.02;;;;;;;9.05;75.00;98744.41;5113907;28;20119;-69
2023/11/05 02:33:32;;;;;;;28.65;20.00;;;;;;;8.93;76.02;98738.34;5113334;28;20100;-71
2023/11/05 02:35:58;;;;;;;31.05;19.35;;;;;;;9.15;74.77;98747.03;5113491;28;20095;-68
2023/11/05 02:38:23;;;;;;;31.73;19.75;;;;;;;9.05;75.16;98731.88;5113366;28;20032;-69
2023/11/05 02:40:49;;;;;;;28.88;18.55;;;;;;;9.03;75.54;98719.63;5112843;28;20035;-69
2023/11/05 02:43:14;;;;;;;28.70;19.77;;;;;;;9.07;75.30;98725.56;5113959;28;20450;-69
2023/11/05 02:45:40;;;;;;;29.63;19.13;;;;;;;9.09;75.58;98715.56;5114038;28;20036;-70
2023/11/05 02:48:06;;;;;;;31.38;19.17;;;;;;;9.22;75.05;98697.44;5113590;28;20180;-70
2023/11/05 02:50:31;;;;;;;27.27;18.73;;;;;;;9.19;74.59;98730.59;5112877;28;20024;-70
2023/11/05 02:52:57;;;;;;;28.95;19.48;;;;;;;9.07;75.02;98691.69;5113426;28;20104;-69
2023/11/05 02:55:22;;;;;;;28.40;19.42;;;;;;;9.19;74.46;98695.06;5113349;28;20020;-68
2023/11/05 02:57:48;;;;;;;28.65;20.38;;;;;;;9.14;75.10;98748.03;5113434;28;20034;-69
2023/11/05 03:00:15;;;;;;;25.60;18.92;;;;;;;9.26;74.78;98714.00;5113146;28;20299;-67
2023/11/05 03:02:41;;;;;;;27.70;18.73;;;;;;;9.34;74.35;98712.31;5113386;28;20027;-69
2023/11/05 03:05:07;;;;;;;27.58;19.45;;;;;;;9.20;74.03;98670.03;5113466;28;20047;-69
2023/11/05 03:07:33;;;;;;;25.15;18.05;;;;;;;9.24;74.91;98700.81;5113125;28;20037;-69
2023/11/05 03:09:59;;;;;;;26.67;17.50;;;;;;;9.40;74.52;98699.34;5112354;28;20090;-69
2023/11/05 03:12:25;;;;;;;26.40;17.33;;;;;;;9.35;74.69;98723.84;5112706;28;20032;-68
2023/11/05 03:14:50;;;;;;;26.33;18.45;;;;;;;9.22;74.55;98700.09;5112614;28;20422;-69
2023/11/05 03:17:17;;;;;;;23.33;16.33;;;;;;;9.51;74.12;98695.66;5112088;28;20485;-69
2023/11/05 03:19:42;;;;;;;23.63;17.88;;;;;;;9.53;74.19;98693.72;5113192;28;20031;-70
2023/11/05 03:22:08;;;;;;;25.08;15.93;;;;;;;9.54;74.15;98700.75;5112745;28;20380;-69
2023/11/05 03:24:34;;;;;;;25.98;18.45;;;;;;;9.39;73.52;98644.25;5113103;28;20036;-68
2023/11/05 03:27:00;;;;;;;24.98;17.77;;;;;;;9.60;73.48;98684.94;5112471;28;20414;-68
2023/11/05 03:29:26;;;;;;;22.73;15.93;;;;;;;9.55;74.24;98683.72;5112398;28;20350;-69
2023/11/05 03:31:52;;;;;;;26.58;16.92;;;;;;;9.58;74.40;98664.72;5110905;28;20028;-68
2023/11/05 03:34:18;;;;;;;23.20;16.60;;;;;;;9.59;74.44;98671.75;5112221;28;20031;-70
2023/11/05 03:36:45;;;;;;;22.10;17.25;;;;;;;9.45;73.58;98633.00;5113077;28;20047;-68
2023/11/05 03:39:10;;;;;;;19.52;16.10;;;;;;;9.66;73.96;98662.16;5113038;28;20549;-68
2023/11/05 03:41:36;;;;;;;21.02;15.82;;;;;;;9.74;73.56;98672.13;5112346;28;20110;-69
2023/11/05 03:44:01;;;;;;;20.52;16.33;;;;;;;9.60;73.48;98647.53;5112767;28;20028;-69
2023/11/05 03:46:27;;;;;;;21.13;16.20;;;;;;;9.73;73.67;98638.34;5111722;28;20396;-69
2023/11/05 03:48:52;;;;;;;19.40;16.48;;;;;;;9.65;73.41;98631.06;5112354;28;20058;-68
2023/11/05 03:51:18;;;;;;;20.88;16.13;;;;;;;9.79;73.79;98643.09;5112722;28;20080;-68
2023/11/05 03:53:45;;;;;;;21.75;15.60;;;;;;;9.85;73.34;98647.84;5112322;28;20110;-69
2023/11/05 03:56:11;;;;;;;20.73;15.38;;;;;;;9.82;73.55;98660.69;5112158;28;20020;-69
2023/11/05 03:58:39;;;;;;;21.35;15.65;;;;;;;9.87;72.96;98631.69;5111515;28;20388;-70
2023/11/05 04:01:06;;;;;;;20.15;15.02;;;;;;;9.99;72.61;98648.34;5112316;28;20126;-69
2023/11/05 04:03:33;;;;;;;23.58;15.63;;;;;;;9.91;72.76;98631.25;5111584;28;20164;-70
2023/11/05 04:05:59;;;;;;;19.42;15.23;;;;;;;9.83;73.13;98636.47;5111835;28;20081;-69
2023/11/05 04:08:24;;;;;;;20.45;14.75;;;;;;;9.87;73.31;98632.50;5111875;28;20035;-68
2023/11/05 04:10:50;;;;;;;17.23;13.93;;;;;;;9.90;73.08;98624.22;5112258;28;20119;-68
2023/11/05 04:13:15;;;;;;;18.42;13.60;;;;;;;9.99;72.73;98638.50;5112517;28;20050;-70
2023/11/05 04:15:42;;;;;;;17.25;13.77;;;;;;;10.04;72.57;98644.25;5112172;28;20142;-70
2023/11/05 04:18:07;;;;;;;17.58;13.98;;;;;;;10.13;72.18;98634.50;5112009;28;20491;-68
2023/11/05 04:20:33;;;;;;;22.20;14.60;;;;;;;10.19;71.73;98647.25;5112407;28;20122;-69
2023/11/05 04:22:59;;;;;;;18.27;13.65;;;;;;;10.09;72.64;98626.91;5112340;28;20072;-70
2023/11/05 04:25:24;;;;;;;17.25;14.00;;;;;;;10.13;72.21;98631.81;5104337;28;20039;-69
2023/11/05 04:27:50;;;;;;;17.40;13.35;;;;;;;10.12;72.65;98650.69;5115591;28;20090;-70
2023/11/05 04:30:15;;;;;;;15.50;12.65;;;;;;;9.96;72.64;98587.16;5115541;28;20400;-70
2023/11/05 04:32:44;;;;;;;16.80;13.25;;;;;;;10.17;72.34;98619.81;5115977;28;20043;-69
2023/11/05 04:35:10;;;;;;;14.75;12.63;;;;;;;10.16;72.37;98604.78;5116140;28;20048;-70
2023/11/05 04:37:35;;;;;;;17.30;12.50;;;;;;;9.98;71.86;98564.63;5115403;28;20028;-62
2023/11/05 04:40:04;;;;;;;15.98;12.77;;;;;;;10.27;71.81;98610.88;5116117;28;20116;-62
2023/11/05 04:42:30;;;;;;;17.02;13.50;;;;;;;10.24;71.86;98595.97;5116404;28;20089;-64
2023/11/05 04:44:57;;;;;;;15.90;13.25;;;;;;;10.22;71.94;98607.81;5115256;28;20467;-64
2023/11/05 04:47:23;;;;;;;17.30;12.00;;;;;;;10.20;72.11;98595.44;5115787;28;20184;-63
2023/11/05 04:49:49;;;;;;;14.63;11.82;;;;;;;10.32;71.67;98598.72;5116399;28;20118;-58
2023/11/05 04:52:15;;;;;;;15.52;12.35;;;;;;;10.36;71.40;98603.78;5116347;28;20042;-62
2023/11/05 04:54:40;;;;;;;13.35;11.95;;;;;;;10.29;71.72;98609.75;5115127;28;20019;-61
2023/11/05 04:57:06;;;;;;;14.02;11.80;;;;;;;10.27;71.61;98594.81;5115387;27;20071;-63
2023/11/05 04:59:33;;;;;;;17.00;11.73;;;;;;;10.24;71.86;98585.25;5115639;28;20074;-62
2023/11/05 05:01:59;;;;;;;12.50;11.05;;;;;;;10.29;71.74;98583.00;5115116;28;20068;-61
2023/11/05 05:04:25;;;;;;;13.73;10.80;;;;;;;10.44;71.13;98612.75;5115098;28;20513;-62
2023/11/05 05:06:51;;;;;;;13.90;11.35;;;;;;;10.40;70.68;98586.41;5115320;28;20027;-62
2023/11/05 05:09:17;;;;;;;15.20;11.18;;;;;;;10.29;71.57;98574.13;5115603;28;20145;-62
2023/11/05 05:11:43;;;;;;;15.35;11.95;;;;;;;10.34;71.59;98587.88;5115700;28;20365;-62
2023/11/05 05:14:09;;;;;;;13.57;10.88;;;;;;;10.32;71.67;98584.50;5115040;28;20031;-62
2023/11/05 05:16:35;;;;;;;13.30;10.85;;;;;;;10.38;71.58;98602.63;5115069;28;20032;-60
2023/11/05 05:19:00;;;;;;;12.48;11.10;;;;;;;10.35;71.46;98592.22;5115739;28;20438;-61
2023/11/05 05:21:26;;;;;;;14.25;11.40;;;;;;;10.49;70.85;98593.56;5115227;27;20092;-62
2023/11/05 05:23:52;;;;;;;13.90;11.57;;;;;;;10.60;70.36;98622.75;5114410;28;20055;-60
2023/11/05 05:26:18;;;;;;;13.82;10.98;;;;;;;10.58;70.35;98595.31;5114865;28;20351;-63
2023/11/05 05:28:44;;;;;;;15.80;11.00;;;;;;;10.27;70.85;98563.59;5114893;28;20039;-61
2023/11/05 05:31:10;;;;;;;14.57;10.63;;;;;;;10.43;71.27;98604.88;5114832;28;20078;-61
2023/11/05 05:33:35;;;;;;;13.45;10.70;;;;;;;10.48;70.87;98592.72;5114729;28;20110;-62
2023/11/05 05:36:01;;;;;;;12.63;10.80;;;;;;;10.54;70.86;98582.38;5114706;28;20113;-62
2023/11/05 05:38:27;;;;;;;12.15;10.85;;;;;;;10.59;70.65;98577.41;5113952;28;20111;-61
2023/11/05 05:40:53;;;;;;;13.02;11.40;;;;;;;10.58;70.62;98584.59;5114484;28;20046;-60
2023/11/05 05:43:18;;;;;;;14.82;10.70;;;;;;;10.51;70.40;98558.63;5114877;28;20027;-61
2023/11/05 05:45:44;;;;;;;15.93;9.60;;;;;;;10.57;69.82;98520.50;5114666;28;20032;-60
2023/11/05 05:48:10;;;;;;;14.13;10.68;;;;;;;10.68;70.16;98560.44;5114412;28;20046;-62
2023/11/05 05:50:36;;;;;;;13.43;10.55;;;;;;;10.62;70.37;98555.72;5113605;28;20027;-58
2023/11/05 05:53:02;;;;;;;12.27;10.45;;;;;;;10.65;70.07;98568.78;5113634;28;20027;-63
2023/11/05 05:55:27;;;;;;;11.93;10.15;;;;;;;10.69;70.44;98572.81;5114378;28;20097;-63
2023/11/05 05:57:52;;;;;;;12.95;9.85;;;;;;;10.84;69.55;98559.69;5112507;28;20072;-59
2023/11/05 06:00:18;;;;;;;12.75;10.25;;;;;;;10.83;69.48;98541.97;5114768;28;20047;-62
2023/11/05 06:02:44;;;;;;;13.48;9.90;;;;;;;10.87;69.50;98545.16;5113552;28;20454;-62
2023/11/05 06:05:09;;;;;;;14.45;10.20;;;;;;;10.88;69.66;98544.16;5113605;28;20063;-62
2023/11/05 06:07:36;;;;;;;11.98;9.88;;;;;;;10.66;69.88;98513.38;5113493;27;20070;-62
2023/11/05 06:10:02;;;;;;;12.85;9.90;;;;;;;10.73;69.27;98517.97;5113882;28;20027;-61
2023/11/05 06:12:30;;;;;;;11.27;9.43;;;;;;;10.94;69.29;98531.97;5112729;28;20125;-62
2023/11/05 06:14:55;;;;;;;15.35;10.15;;;;;;;10.90;69.16;98520.75;5113187;28;20602;-61
2023/11/05 06:17:21;;;;;;;15.02;8.77;;;;;;;10.99;68.79;98519.78;5113904;27;21364;-61
2023/11/05 06:19:47;;;;;;;12.23;9.52;;;;;;;11.05;68.69;98518.31;5113403;28;20032;-60
2023/11/05 06:22:13;;;;;;;12.20;8.98;;;;;;;10.98;68.74;98514.63;5113150;28;21606;-65
2023/11/05 06:24:39;;;;;;;13.30;9.48;;;;;;;10.91;68.88;98517.06;5113479;28;20031;-65
2023/11/05 06:27:04;;;;;;;13.15;10.10;;;;;;;11.01;68.89;98546.44;5112594;28;20051;-66
2023/11/05 06:29:30;;;;;;;12.35;9.27;;;;;;;10.98;68.85;98520.78;5112347;28;20041;-65
2023/11/05 06:31:55;;;;;;;10.02;8.98;;;;;;;11.09;68.54;98521.50;5105760;28;20051;-68
2023/11/05 06:34:21;;;;;;;11.43;9.65;;;;;;;11.14;68.33;98522.72;5110187;28;20043;-65
2023/11/05 06:36:56;;;;;;;11.73;9.23;;;;;;;11.24;68.69;98548.56;5110720;28;20465;-64
2023/11/05 06:39:22;;;;;;;10.43;9.05;;;;;;;11.09;68.39;98492.91;5110531;28;20035;-64
2023/11/05 06:41:47;;;;;;;11.13;9.65;;;;;;;11.03;67.96;98504.25;5110654;28;20040;-64
2023/11/05 06:44:13;;;;;;;12.73;8.90;;;;;;;11.11;68.01;98532.94;5102190;28;20027;-65
2023/11/05 06:46:38;;;;;;;11.85;8.52;;;;;;;11.14;68.58;98546.81;5109661;28;20032;-64
2023/11/05 06:49:04;;;;;;;14.20;8.85;;;;;;;10.98;67.59;98472.59;5110977;28;20065;-63
2023/11/05 06:51:30;;;;;;;13.80;9.05;;;;;;;11.11;68.00;98515.00;5111589;28;20020;-64
2023/11/05 06:53:55;;;;;;;11.57;8.60;;;;;;;11.15;67.91;98502.13;5111858;28;20365;-63
2023/11/05 06:56:21;;;;;;;11.65;8.77;;;;;;;11.11;68.08;98504.28;5112953;28;20039;-64
2023/11/05 06:58:47;;;;;;;12.07;8.80;;;;;;;11.17;67.93;98537.63;5109765;28;20461;-64
2023/11/05 07:01:14;;;;;;;11.40;8.90;;;;;;;10.94;67.83;98455.16;5112476;27;20063;-65
2023/11/05 07:03:39;;;;;;;11.90;9.05;;;;;;;11.29;67.32;98530.97;5112496;27;20457;-64
2023/11/05 07:06:05;;;;;;;10.68;8.88;;;;;;;11.28;67.40;98497.16;5112792;28;20028;-64
2023/11/05 07:08:31;;;;;;;14.05;9.50;;;;;;;11.12;67.36;98471.13;5112039;28;20028;-63
2023/11/05 07:10:56;;;;;;;9.32;8.38;;;;;;;11.27;67.35;98500.00;5112444;28;20040;-65
2023/11/05 07:13:22;;;;;;;14.73;9.32;;;;;;;11.39;66.90;98508.59;5112522;28;20020;-64
2023/11/05 07:15:48;;;;;;;12.45;8.13;;;;;;;11.43;66.73;98500.06;5112665;28;20032;-64
2023/11/05 07:18:14;;;;;;;14.48;8.48;;;;;;;11.47;66.71;98505.94;5112107;28;20023;-64
2023/11/05 07:20:39;;;;;;;10.18;8.00;;;;;;;11.57;66.43;98469.09;5111613;28;20023;-64
2023/11/05 07:23:05;;;;;;;13.32;8.18;;;;;;;11.68;65.91;98461.78;5111148;28;20019;-65
2023/11/05 07:25:31;;;;;;;9.32;8.23;;;;;;;11.65;65.73;98437.97;5111108;28;20074;-63
2023/11/05 07:27:58;;;;;;;11.23;8.05;;;;;;;11.73;65.81;98479.03;5110304;28;20070;-63
2023/11/05 07:30:24;;;;;;;9.77;8.00;;;;;;;11.77;65.28;98452.72;5111785;28;20015;-64
2023/11/05 07:32:50;;;;;;;10.45;8.18;;;;;;;11.73;65.56;98457.59;5111516;28;20404;-65
2023/11/05 07:35:15;;;;;;;10.10;7.50;;;;;;;11.73;65.61;98480.88;5111212;28;20131;-63
2023/11/05 07:37:42;;;;;;;8.93;7.60;;;;;;;11.73;65.61;98483.56;5109732;28;20123;-65
2023/11/05 07:40:09;;;;;;;11.73;7.88;;;;;;;11.50;66.21;98470.75;5112018;28;20023;-64
2023/11/05 07:42:36;;;;;;;10.95;8.40;;;;;;;11.74;65.59;98479.88;5111303;28;20053;-64
2023/11/05 07:45:02;;;;;;;11.18;8.02;;;;;;;11.75;65.48;98473.50;5111286;28;20031;-65
2023/11/05 07:47:31;;;;;;;10.90;7.65;;;;;;;11.87;65.71;98484.75;5110430;28;20035;-63
2023/11/05 07:49:57;;;;;;;11.13;8.05;;;;;;;11.95;64.99;98490.16;5111375;28;20089;-63
2023/11/05 07:52:23;;;;;;;17.23;7.93;;;;;;;11.84;64.69;98474.34;5111067;28;20032;-66
2023/11/05 07:54:48;;;;;;;14.23;7.60;;;;;;;12.09;64.44;98494.03;5111308;28;20024;-67
2023/11/05 07:57:14;;;;;;;12.32;7.43;;;;;;;12.08;64.16;98494.19;5112293;28;20047;-67
2023/11/05 07:59:40;;;;;;;14.77;7.22;;;;;;;12.21;63.87;98524.06;5110698;28;20051;-67
2023/11/05 08:02:05;;;;;;;11.32;7.93;;;;;;;12.19;64.03;98478.59;5114844;28;20024;-66
2023/11/05 08:04:31;;;;;;;9.52;7.65;;;;;;;12.27;63.92;98487.66;5116206;28;20379;-66
2023/11/05 08:06:56;;;;;;;10.40;7.35;;;;;;;12.29;63.77;98481.13;5115973;28;20521;-63
2023/11/05 08:09:23;;;;;;;12.35;8.25;;;;;;;12.38;63.08;98476.59;5116712;28;20378;-64
2023/11/05 08:11:53;;;;;;;13.38;8.10;;;;;;;12.36;63.41;98454.47;5116056;28;20023;-65
2023/11/05 08:14:19;;;;;;;11.32;7.57;;;;;;;12.24;63.27;98448.59;5115753;28;20031;-64
2023/11/05 08:16:45;;;;;;;10.45;7.53;;;;;;;12.44;62.99;98469.72;5115632;28;20028;-64
2023/11/05 08:19:10;;;;;;;11.43;7.18;;;;;;;12.59;62.56;98434.97;5116290;28;20042;-63
2023/11/05 08:21:36;;;;;;;10.05;7.30;;;;;;;12.68;61.98;98433.94;5116178;28;20034;-64
2023/11/05 08:24:01;;;;;;;11.88;7.80;;;;;;;12.77;61.59;98419.44;5115929;28;20038;-63
2023/11/05 08:26:27;;;;;;;9.85;7.53;;;;;;;12.86;61.16;98431.00;5115688;28;20350;-63
2023/11/05 08:28:54;;;;;;;12.98;8.05;;;;;;;12.74;61.53;98411.75;5115614;28;20032;-62
2023/11/05 08:31:19;;;;;;;10.88;8.00;;;;;;;12.67;61.68;98410.75;5115929;28;20036;-61
2023/11/05 08:33:45;;;;;;;12.27;7.88;;;;;;;12.69;61.49;98410.59;5115800;28;20038;-61
2023/11/05 08:36:10;;;;;;;9.10;7.82;;;;;;;12.49;62.03;98419.88;5115078;28;20059;-63
2023/11/05 08:38:37;;;;;;;11.75;7.50;;;;;;;12.53;62.16;98430.25;5115898;28;20035;-62
2023/11/05 08:41:04;;;;;;;11.07;8.40;;;;;;;12.53;62.08;98387.31;5115829;28;20118;-61
2023/11/05 08:43:29;;;;;;;12.57;8.13;;;;;;;12.57;62.12;98372.56;5112038;28;20474;-63
2023/11/05 08:45:55;;;;;;;10.02;8.30;;;;;;;12.51;62.02;98335.63;5116101;28;20059;-62
2023/11/05 08:48:20;;;;;;;13.35;8.25;;;;;;;12.45;61.83;98343.38;5115159;28;20335;-62
2023/11/05 08:50:46;;;;;;;13.50;8.57;;;;;;;12.32;61.31;98310.91;5115027;28;20024;-62
2023/11/05 08:53:12;;;;;;;13.40;8.27;;;;;;;12.58;61.44;98390.34;5115525;28;20366;-63
2023/11/05 08:55:37;;;;;;;10.57;8.13;;;;;;;12.61;61.40;98384.63;5114759;28;20426;-62
2023/11/05 08:58:03;;;;;;;12.52;7.43;;;;;;;12.71;61.21;98379.88;5114465;28;20497;-62
2023/11/05 09:00:32;;;;;;;12.13;7.97;;;;;;;12.92;60.68;98392.72;5115999;28;20067;-62
2023/11/05 09:03:00;;;;;;;12.57;6.90;;;;;;;13.12;60.10;98375.34;5115708;28;20096;-63
2023/11/05 09:05:26;;;;;;;10.00;7.22;;;;;;;13.34;59.52;98377.22;5114922;28;20028;-62
2023/11/05 09:07:52;;;;;;;12.85;7.45;;;;;;;13.52;58.47;98384.22;5114403;28;20027;-61
2023/11/05 09:10:22;;;;;;;12.13;7.80;;;;;;;13.52;58.09;98333.13;5115602;28;20097;-63
2023/11/05 09:12:50;;;;;;;12.35;7.13;;;;;;;13.92;57.16;98390.28;5113986;28;20027;-63
2023/11/05 09:15:17;;;;;;;10.07;7.13;;;;;;;13.98;56.55;98339.44;5115149;28;20110;-62
2023/11/05 09:17:43;;;;;;;11.07;8.18;;;;;;;14.16;56.29;98361.47;5115114;28;20130;-61
2023/11/05 09:20:10;;;;;;;17.13;8.10;;;;;;;14.20;56.19;98330.47;5114530;28;20107;-63
2023/11/05 09:22:38;;;;;;;9.98;6.63;;;;;;;14.18;56.14;98340.59;5114792;28;20122;-62
2023/11/05 09:25:05;;;;;;;10.02;7.40;;;;;;;14.04;56.45;98322.59;5114881;28;20031;-62
2023/11/05 09:27:31;;;;;;;8.73;6.88;;;;;;;13.93;56.77;98335.44;5114721;28;20056;-62
2023/11/05 09:29:57;;;;;;;14.07;7.70;;;;;;;13.99;56.58;98316.91;5114282;28;20377;-63
2023/11/05 09:32:22;;;;;;;12.30;7.93;;;;;;;14.18;55.94;98323.63;5113916;28;20027;-63
2023/11/05 09:34:48;;;;;;;10.60;7.90;;;;;;;14.09;56.28;98333.63;5114128;28;20011;-63
2023/11/05 09:37:13;;;;;;;10.73;7.55;;;;;;;14.05;56.21;98348.47;5115429;28;20031;-62
2023/11/05 09:39:39;;;;;;;15.85;8.35;;;;;;;14.02;56.42;98343.47;5114107;28;20027;-63
2023/11/05 09:42:06;;;;;;;10.77;7.78;;;;;;;14.08;56.16;98315.81;5114317;28;20469;-62
2023/11/05 09:44:32;;;;;;;13.20;8.07;;;;;;;14.12;56.03;98306.34;5114823;28;20024;-62
2023/11/05 09:47:00;;;;;;;16.27;8.60;;;;;;;14.39;55.34;98333.66;5114444;28;20085;-64
2023/11/05 09:49:27;;;;;;;14.85;8.10;;;;;;;14.46;55.25;98328.34;5114204;28;20023;-61
2023/11/05 09:51:53;;;;;;;14.45;7.75;;;;;;;14.52;54.69;98321.41;5113980;28;20039;-63
2023/11/05 09:54:18;;;;;;;13.48;7.47;;;;;;;14.61;54.86;98321.13;5113992;28;20050;-62
2023/11/05 09:56:45;;;;;;;10.57;7.53;;;;;;;14.52;54.74;98283.69;5113925;28;20042;-64
2023/11/05 09:59:11;;;;;;;15.77;7.75;;;;;;;14.85;54.34;98277.91;5114159;28;20452;-62
2023/11/05 10:01:36;;;;;;;10.23;7.35;;;;;;;14.77;54.31;98297.69;5114320;28;20027;-63
2023/11/05 10:04:06;;;;;;;14.13;8.15;;;;;;;14.73;54.74;98258.69;5114351;28;20035;-63
2023/11/05 10:06:34;;;;;;;10.48;7.88;;;;;;;14.64;54.94;98256.09;5114266;28;20132;-62
2023/11/05 10:09:04;;;;;;;12.45;7.85;;;;;;;14.66;54.73;98263.97;5095968;28;20058;-64
2023/11/05 10:11:30;;;;;;;11.50;7.65;;;;;;;14.38;55.12;98256.59;5113574;28;20469;-63
2023/11/05 10:13:56;;;;;;;11.63;8.30;;;;;;;14.45;55.28;98305.97;5113853;28;20035;-64
2023/11/05 10:16:25;;;;;;;11.88;8.32;;;;;;;14.35;56.05;98321.56;5114401;28;20050;-64
2023/11/05 10:18:54;;;;;;;10.70;7.68;;;;;;;14.39;56.24;98306.72;5114109;28;20110;-62
2023/11/05 10:21:33;;;;;;;13.57;8.07;;;;;;;14.35;56.56;98284.72;5113297;28;20081;-63
2023/11/05 10:23:59;;;;;;;17.73;7.78;;;;;;;14.23;56.46;98293.44;5112061;28;20410;-63
2023/11/05 10:26:33;;;;;;;18.33;7.97;;;;;;;14.47;56.41;98321.94;5114131;28;20048;-63
2023/11/05 10:29:00;;;;;;;13.00;7.35;;;;;;;14.60;55.45;98311.38;5113680;28;20110;-63
2023/11/05 10:31:28;;;;;;;13.80;7.82;;;;;;;14.72;55.39;98292.03;5112512;28;20105;-63
2023/11/05 10:33:55;;;;;;;14.02;8.07;;;;;;;14.78;55.12;98283.19;5113517;28;20031;-63
2023/11/05 10:36:25;;;;;;;12.02;7.28;;;;;;;14.76;55.37;98283.41;5113023;28;20028;-63
2023/11/05 10:38:51;;;;;;;16.95;8.07;;;;;;;14.69;55.33;98303.16;5113836;28;20031;-63
2023/11/05 10:41:18;;;;;;;15.82;7.88;;;;;;;14.59;55.70;98296.22;5112439;28;20028;-63
2023/11/05 10:43:49;;;;;;;12.95;8.00;;;;;;;14.44;56.36;98296.22;5113295;28;20446;-62
2023/11/05 10:46:19;;;;;;;13.43;7.22;;;;;;;14.28;56.72;98269.50;5113621;28;20027;-62
2023/11/05 10:48:48;;;;;;;21.48;8.13;;;;;;;14.29;57.04;98293.53;5113157;28;20088;-63
2023/11/05 10:51:16;;;;;;;16.48;8.20;;;;;;;14.31;56.80;98266.44;5109488;28;20370;-64
2023/11/05 10:53:45;;;;;;;11.38;6.75;;;;;;;14.25;56.76;98272.56;5113244;28;20047;-63
2023/11/05 10:56:32;;;;;;;13.95;7.82;;;;;;;14.28;57.46;98310.72;5114043;28;20027;-64
2023/11/05 10:58:58;;;;;;;17.95;7.88;;;;;;;14.20;57.23;98290.09;5110363;28;20031;-62
2023/11/05 11:01:36;;;;;;;13.20;7.97;;;;;;;14.24;57.42;98278.97;5112017;28;20023;-63
2023/11/05 11:04:09;;;;;;;16.48;7.97;;;;;;;14.17;57.58;98282.41;5112005;28;20024;-64
2023/11/05 11:06:39;;;;;;;15.13;8.13;;;;;;;14.19;57.26;98283.03;5112658;28;20096;-62
2023/11/05 11:09:19;;;;;;;15.43;8.15;;;;;;;14.01;57.49;98267.25;5112332;28;20092;-62
2023/11/05 11:11:46;;;;;;;13.25;7.88;;;;;;;13.99;57.59;98260.41;5112114;27;20498;-64
2023/11/05 11:14:11;;;;;;;14.98;7.88;;;;;;;14.32;57.10;98292.34;5112293;28;20065;-62
2023/11/05 11:16:40;;;;;;;13.80;8.13;;;;;;;14.35;56.97;98292.81;5112059;28;20027;-63
2023/11/05 11:19:16;;;;;;;14.52;7.82;;;;;;;14.42;57.07;98295.56;5112065;28;20059;-62
2023/11/05 11:22:01;;;;;;;19.00;8.27;;;;;;;14.43;56.88;98305.31;5112582;28;20081;-64